createdAt,value
2022-08-17T05:37:36.462Z,99.90
2022-08-17T05:42:30.081Z,99.90
2022-08-17T05:47:25.245Z,99.90
2022-08-17T05:52:27.728Z,99.90
2022-08-17T05:57:39.894Z,99.90
2022-08-17T06:02:47.893Z,99.90
2022-08-17T06:22:17.947Z,99.90
2022-08-17T06:27:20.200Z,99.90
2022-08-17T06:32:15.087Z,99.90
2022-08-17T06:37:32.517Z,99.90
2022-08-17T06:42:55.042Z,99.90
2022-08-17T06:48:01.431Z,99.90
2022-08-17T07:07:57.059Z,99.90
2022-08-17T07:12:54.666Z,99.90
2022-08-17T07:17:48.938Z,99.90
2022-08-17T07:22:55.263Z,99.90
2022-08-17T07:43:23.504Z,99.90
2022-08-17T07:48:21.549Z,99.90
2022-08-17T07:53:18.805Z,99.90
2022-08-17T07:58:18.030Z,99.90
2022-08-17T08:18:38.581Z,99.90
2022-08-17T08:23:49.082Z,99.90
2022-08-17T08:28:52.765Z,99.90
2022-08-17T08:33:58.214Z,99.90
2022-08-17T08:38:58.109Z,99.90
2022-08-17T08:44:03.879Z,99.80
2022-08-17T09:05:30.792Z,96.30
2022-08-17T09:10:30.058Z,96.50
2022-08-17T09:15:29.487Z,95.40
2022-08-17T09:20:31.099Z,95.20
2022-08-17T09:25:29.120Z,94.20
2022-08-17T09:30:25.175Z,92.10
2022-08-17T09:35:36.776Z,91.70
2022-08-17T09:40:36.689Z,91.70
2022-08-17T09:45:36.887Z,92.80
2022-08-17T09:51:04.882Z,91.40
2022-08-17T09:56:10.505Z,90.10
2022-08-17T10:01:13.176Z,88.80
2022-08-17T10:06:14.446Z,87.50
2022-08-17T10:11:20.394Z,85.20
2022-08-17T10:16:35.644Z,84.30
2022-08-17T10:21:51.439Z,82.60
2022-08-17T10:26:57.522Z,82.00
2022-08-17T10:32:04.202Z,79.50
2022-08-17T10:37:10.298Z,75.40
2022-08-17T10:42:32.260Z,74.60
2022-08-17T10:47:27.283Z,73.10
2022-08-17T10:52:55.235Z,71.20
2022-08-17T10:57:51.606Z,69.50
2022-08-17T11:02:51.603Z,69.30
2022-08-17T11:08:01.043Z,67.20
2022-08-17T11:13:23.323Z,68.10
2022-08-17T11:18:33.371Z,65.90
2022-08-17T11:24:12.142Z,63.50
2022-08-17T11:29:18.311Z,62.60
2022-08-17T11:34:19.833Z,61.40
2022-08-17T11:39:32.450Z,61.60
2022-08-17T11:44:38.426Z,61.20
2022-08-17T11:50:03.087Z,59.90
2022-08-17T11:55:17.731Z,58.90
2022-08-17T12:00:49.544Z,58.30
2022-08-17T12:05:43.414Z,58.70
2022-08-17T12:10:49.696Z,55.30
2022-08-17T12:15:49.971Z,54.40
2022-08-17T12:20:52.033Z,53.90
2022-08-17T12:25:51.534Z,52.10
2022-08-17T12:30:52.085Z,52.70
2022-08-17T12:35:47.590Z,51.90
2022-08-17T12:40:55.453Z,53.00
2022-08-17T12:45:59.799Z,53.70
2022-08-17T12:50:53.773Z,52.40
2022-08-17T12:55:48.357Z,52.40
2022-08-17T13:00:48.838Z,53.40
2022-08-17T13:05:56.488Z,51.70
2022-08-17T13:10:57.533Z,50.70
2022-08-17T13:15:56.677Z,49.90
2022-08-17T13:20:56.018Z,49.90
2022-08-17T13:25:59.772Z,49.50
2022-08-17T13:30:53.238Z,48.70
2022-08-17T13:35:50.328Z,48.00
2022-08-17T13:40:58.035Z,47.70
2022-08-17T13:45:53.474Z,47.50
2022-08-17T13:50:50.156Z,47.70
2022-08-17T13:55:53.323Z,48.00
2022-08-17T14:00:46.961Z,46.80
2022-08-17T14:05:41.176Z,45.10
2022-08-17T14:10:36.660Z,45.00
2022-08-17T14:15:55.428Z,44.70
2022-08-17T14:20:46.820Z,44.50
2022-08-17T14:25:40.570Z,43.70
2022-08-17T14:30:38.102Z,42.80
2022-08-17T14:35:31.574Z,42.80
2022-08-17T14:40:25.976Z,43.50
2022-08-17T14:45:30.155Z,42.80
2022-08-17T14:50:28.739Z,41.50
2022-08-17T14:55:22.383Z,41.30
2022-08-17T15:00:17.040Z,40.40
2022-08-17T15:05:11.000Z,40.50
2022-08-17T15:10:08.528Z,41.00
2022-08-17T15:15:04.936Z,40.70
2022-08-17T15:19:58.800Z,42.20
2022-08-17T15:24:52.416Z,40.80
2022-08-17T15:29:47.644Z,40.50
2022-08-17T15:34:41.199Z,40.00
2022-08-17T15:39:34.801Z,40.70
2022-08-17T15:44:32.523Z,40.90
2022-08-17T15:49:30.475Z,41.00
2022-08-17T15:54:24.409Z,41.70
2022-08-17T15:59:18.393Z,41.10
2022-08-17T16:04:26.495Z,41.20
2022-08-17T16:09:26.332Z,41.90
2022-08-17T16:14:19.950Z,42.50
2022-08-17T16:19:14.038Z,43.40
2022-08-17T16:24:13.151Z,44.20
2022-08-17T16:29:10.503Z,43.90
2022-08-17T16:34:17.505Z,44.40
2022-08-17T16:39:12.454Z,44.10
2022-08-17T16:44:06.860Z,43.30
2022-08-17T16:49:02.061Z,41.60
2022-08-17T16:53:59.390Z,41.30
2022-08-17T16:58:53.736Z,41.30
2022-08-17T17:03:55.188Z,41.80
2022-08-17T17:08:58.934Z,43.10
2022-08-17T17:13:58.023Z,44.10
2022-08-17T17:19:05.245Z,45.70
2022-08-17T17:24:04.311Z,47.20
2022-08-17T17:29:11.772Z,49.50
2022-08-17T17:34:08.219Z,50.40
2022-08-17T17:39:06.856Z,50.60
2022-08-17T17:44:08.289Z,54.80
2022-08-17T17:49:03.072Z,59.20
2022-08-17T17:54:06.759Z,61.50
2022-08-17T17:59:11.200Z,62.30
2022-08-17T18:04:21.127Z,64.30
2022-08-17T18:09:29.155Z,64.80
2022-08-17T18:14:41.207Z,69.30
2022-08-17T18:19:39.050Z,71.30
2022-08-17T18:24:34.833Z,72.90
2022-08-17T18:29:40.222Z,76.30
2022-08-17T18:34:47.141Z,77.60
2022-08-17T18:39:41.890Z,77.10
2022-08-17T18:44:46.347Z,79.30
2022-08-17T18:49:40.107Z,80.40
2022-08-17T18:54:36.251Z,82.10
2022-08-17T18:59:35.943Z,83.00
2022-08-17T19:04:35.283Z,83.30
2022-08-17T19:09:35.769Z,85.40
2022-08-17T19:14:30.010Z,86.30
2022-08-17T19:19:27.673Z,86.70
2022-08-17T19:24:24.955Z,87.90
2022-08-17T19:29:23.522Z,90.00
2022-08-17T19:34:33.644Z,90.80
2022-08-17T19:39:38.329Z,91.10
2022-08-17T19:44:46.591Z,91.60
2022-08-17T19:49:50.863Z,92.10
2022-08-17T19:54:55.551Z,92.50
2022-08-17T19:59:55.415Z,92.50
2022-08-17T20:04:52.030Z,92.90
2022-08-17T20:09:51.886Z,93.00
2022-08-17T20:14:53.805Z,93.70
2022-08-17T20:19:55.557Z,94.20
2022-08-17T20:24:55.749Z,94.40
2022-08-17T20:30:03.627Z,94.30
2022-08-17T20:35:21.506Z,94.40
2022-08-17T20:40:39.276Z,95.20
2022-08-17T20:46:11.854Z,95.60
2022-08-17T20:51:19.608Z,96.40
2022-08-17T20:57:06.091Z,96.60
2022-08-17T21:02:18.970Z,96.50
2022-08-17T21:07:29.431Z,96.10
2022-08-17T21:12:44.316Z,96.10
